Time;durP1;ratioP1;P1;durP2;ratioP2;P2;SDS_P1;SDS_P2;PMS_P1;PMS_P2;Temp;Humidity;BMP_temperature;BMP_pressure;BME280_temperature;BME280_humidity;BME280_pressure;Samples;Min_cycle;Max_cycle;Signal;HPM_P1;HPM_P2
2022/11/07 00:01:12;;;;;;;36.63;33.55;;;13.30;99.90;;;;;;4998507;28;20397;-85
2022/11/07 00:03:38;;;;;;;38.35;34.60;;;13.30;99.90;;;;;;4990158;28;20046;-84
2022/11/07 00:06:04;;;;;;;37.05;33.75;;;13.30;99.90;;;;;;4996527;28;20030;-84
2022/11/07 00:08:30;;;;;;;38.53;34.15;;;13.30;99.90;;;;;;5012491;28;20042;-85
2022/11/07 00:10:57;;;;;;;37.42;34.20;;;13.30;99.90;;;;;;5031886;28;20040;-85
2022/11/07 00:13:25;;;;;;;38.80;35.35;;;13.30;99.90;;;;;;5033292;28;20060;-84
2022/11/07 00:15:53;;;;;;;38.45;34.78;;;13.30;99.90;;;;;;5005194;28;20376;-84
2022/11/07 00:18:19;;;;;;;41.42;37.17;;;13.30;99.90;;;;;;5003911;28;20053;-84
2022/11/07 00:20:45;;;;;;;38.75;34.90;;;13.30;99.90;;;;;;5012546;28;20026;-85
2022/11/07 00:23:11;;;;;;;40.92;36.83;;;13.30;99.90;;;;;;4984579;28;20042;-85
2022/11/07 00:25:37;;;;;;;42.60;37.85;;;13.30;99.90;;;;;;5001063;28;20398;-85
2022/11/07 00:28:04;;;;;;;39.65;35.83;;;13.30;99.90;;;;;;4988144;28;20053;-85
2022/11/07 00:30:30;;;;;;;40.10;35.63;;;13.30;99.90;;;;;;5015303;28;20033;-85
2022/11/07 00:32:56;;;;;;;43.20;37.72;;;13.40;99.90;;;;;;5031641;28;20037;-84
2022/11/07 00:35:22;;;;;;;41.65;37.85;;;13.40;99.90;;;;;;4983768;28;20046;-85
2022/11/07 00:37:48;;;;;;;44.42;39.03;;;13.40;99.90;;;;;;5013973;28;20046;-85
2022/11/07 00:40:14;;;;;;;41.08;37.35;;;13.40;99.90;;;;;;5031540;28;20037;-85
2022/11/07 00:42:40;;;;;;;42.05;37.95;;;13.40;99.90;;;;;;5032948;28;20513;-85
2022/11/07 00:45:07;;;;;;;41.45;37.08;;;13.40;99.90;;;;;;4997613;28;20042;-85
2022/11/07 00:47:33;;;;;;;40.50;36.40;;;13.40;99.90;;;;;;4998722;28;20041;-85
2022/11/07 00:49:59;;;;;;;41.83;37.88;;;13.50;99.90;;;;;;5032062;28;20048;-85
2022/11/07 00:52:25;;;;;;;45.13;39.60;;;13.50;99.90;;;;;;5032961;28;20466;-84
2022/11/07 00:54:51;;;;;;;47.03;40.72;;;13.50;99.90;;;;;;5014785;28;20029;-85
2022/11/07 00:57:17;;;;;;;41.55;37.95;;;13.50;99.90;;;;;;5014854;28;20482;-85
2022/11/07 00:59:43;;;;;;;42.78;38.60;;;13.50;99.90;;;;;;5014551;28;20029;-85
2022/11/07 01:02:09;;;;;;;43.65;39.42;;;13.50;99.90;;;;;;5013472;28;20060;-85
2022/11/07 01:07:20;;;;;;;37.55;33.67;;;13.50;99.90;;;;;;5010568;28;20152;-85
2022/11/07 01:09:47;;;;;;;39.30;35.85;;;13.50;99.90;;;;;;5014658;28;20044;-85
2022/11/07 01:12:13;;;;;;;37.08;33.20;;;13.50;99.90;;;;;;4998194;28;20037;-84
2022/11/07 01:14:39;;;;;;;36.38;33.00;;;13.50;99.90;;;;;;4973949;28;20486;-85
2022/11/07 01:17:05;;;;;;;40.33;35.97;;;13.50;99.90;;;;;;5031852;28;20041;-84
2022/11/07 01:19:31;;;;;;;39.65;35.65;;;13.60;99.90;;;;;;5013693;28;20025;-85
2022/11/07 01:21:57;;;;;;;36.60;32.97;;;13.60;99.90;;;;;;4998237;28;20038;-85
2022/11/07 01:24:23;;;;;;;41.90;37.85;;;13.60;99.90;;;;;;5013021;28;20033;-85
2022/11/07 01:26:50;;;;;;;41.95;36.03;;;13.60;99.90;;;;;;4998575;28;20033;-85
2022/11/07 01:29:17;;;;;;;38.08;34.08;;;13.60;99.90;;;;;;4998981;28;20036;-84
2022/11/07 01:31:43;;;;;;;37.22;33.60;;;13.70;99.90;;;;;;4997953;28;20630;-85
2022/11/07 01:34:09;;;;;;;36.83;33.63;;;13.70;99.90;;;;;;4997648;28;20032;-85
2022/11/07 01:36:35;;;;;;;36.78;33.45;;;13.70;99.90;;;;;;5032065;28;20037;-85
2022/11/07 01:39:02;;;;;;;40.70;36.55;;;13.70;99.90;;;;;;5013440;28;20497;-84
2022/11/07 01:41:30;;;;;;;40.30;36.40;;;13.70;99.90;;;;;;4997524;28;20034;-85
2022/11/07 01:44:06;;;;;;;40.97;36.90;;;13.70;99.90;;;;;;4998445;28;20033;-84
2022/11/07 01:46:33;;;;;;;41.83;35.15;;;13.70;99.90;;;;;;5031760;28;20037;-85
2022/11/07 01:49:19;;;;;;;40.58;36.60;;;13.70;99.90;;;;;;4996751;28;20466;-85
2022/11/07 01:52:06;;;;;;;38.63;35.08;;;13.70;99.90;;;;;;5030810;28;20078;-85
2022/11/07 01:54:42;;;;;;;41.35;37.28;;;13.70;99.90;;;;;;5013756;28;20037;-84
2022/11/07 01:57:11;;;;;;;41.00;36.83;;;13.70;99.90;;;;;;5014592;28;20501;-85
2022/11/07 01:59:37;;;;;;;40.45;36.95;;;13.70;99.90;;;;;;4997501;28;20029;-85
2022/11/07 02:02:03;;;;;;;39.33;35.72;;;13.70;99.90;;;;;;5012725;28;20250;-85
2022/11/07 02:04:30;;;;;;;42.40;38.22;;;13.70;99.90;;;;;;4985112;28;20038;-85
2022/11/07 02:07:13;;;;;;;41.78;37.65;;;13.70;99.90;;;;;;5009287;28;20030;-85
2022/11/07 02:09:39;;;;;;;39.17;35.55;;;13.70;99.90;;;;;;5014590;28;20485;-85
2022/11/07 02:12:05;;;;;;;39.28;35.70;;;13.70;99.90;;;;;;5012915;28;20045;-84
2022/11/07 02:14:31;;;;;;;40.13;36.15;;;13.70;99.90;;;;;;4998444;28;20038;-85
2022/11/07 02:16:57;;;;;;;39.45;35.78;;;13.70;99.90;;;;;;5006641;28;20029;-84
2022/11/07 02:19:23;;;;;;;37.92;34.53;;;13.70;99.90;;;;;;4998400;28;20057;-85
2022/11/07 02:22:04;;;;;;;39.05;35.72;;;13.70;99.90;;;;;;5035393;28;20021;-85
2022/11/07 02:24:32;;;;;;;38.00;34.80;;;13.70;99.90;;;;;;5002200;28;20025;-85
2022/11/07 02:26:58;;;;;;;37.10;34.53;;;13.70;99.90;;;;;;5017322;28;20053;-85
2022/11/07 02:29:24;;;;;;;41.60;38.38;;;13.70;99.90;;;;;;5001945;28;20033;-85
2022/11/07 02:32:04;;;;;;;42.22;37.22;;;13.70;99.90;;;;;;5001188;28;20482;-86
2022/11/07 02:34:30;;;;;;;40.45;36.38;;;13.60;99.90;;;;;;5018706;28;20417;-86
2022/11/07 02:36:56;;;;;;;44.55;40.42;;;13.60;99.90;;;;;;5006688;28;20030;-85
2022/11/07 02:39:22;;;;;;;41.22;38.13;;;13.60;99.90;;;;;;4980651;28;20046;-85
2022/11/07 02:41:48;;;;;;;43.67;40.08;;;13.60;99.90;;;;;;4998039;28;20520;-85
2022/11/07 02:44:15;;;;;;;42.92;39.35;;;13.60;99.90;;;;;;4998272;28;20044;-86
2022/11/07 02:46:41;;;;;;;40.53;37.28;;;13.60;99.90;;;;;;4980849;28;20410;-85
2022/11/07 02:49:07;;;;;;;45.70;41.90;;;13.60;99.90;;;;;;4991045;28;20041;-84
2022/11/07 02:51:33;;;;;;;46.60;43.20;;;13.60;99.90;;;;;;5015378;28;20037;-85
2022/11/07 02:53:59;;;;;;;47.05;42.67;;;13.60;99.90;;;;;;5015998;28;20037;-85
2022/11/07 02:56:25;;;;;;;43.13;39.53;;;13.60;99.90;;;;;;5034959;28;20043;-85
2022/11/07 02:58:53;;;;;;;49.03;44.88;;;13.60;99.90;;;;;;5001354;28;20053;-85
2022/11/07 03:01:19;;;;;;;44.97;41.30;;;13.60;99.90;;;;;;5014829;28;20033;-85
2022/11/07 03:03:47;;;;;;;47.40;43.03;;;13.70;99.90;;;;;;4991648;28;20029;-85
2022/11/07 03:06:14;;;;;;;49.03;44.80;;;13.70;99.90;;;;;;5010196;28;20030;-85
2022/11/07 03:08:41;;;;;;;50.45;46.38;;;13.70;99.90;;;;;;5007073;28;20029;-85
2022/11/07 03:11:08;;;;;;;48.97;44.55;;;13.70;99.90;;;;;;5002367;28;20028;-85
2022/11/07 03:13:34;;;;;;;49.65;45.38;;;13.70;99.90;;;;;;5002974;28;20242;-85
2022/11/07 03:16:05;;;;;;;44.17;40.40;;;13.80;99.90;;;;;;4993101;28;20037;-85
2022/11/07 03:18:31;;;;;;;;;;;13.70;99.90;;;;;;5000027;28;20049;-85
2022/11/07 03:20:57;;;;;;;47.08;42.80;;;13.70;99.90;;;;;;5014833;28;19909;-85
2022/11/07 03:23:23;;;;;;;42.50;38.35;;;13.80;99.90;;;;;;5015580;28;20025;-85
2022/11/07 03:25:50;;;;;;;45.28;40.75;;;13.80;99.90;;;;;;5004713;28;20034;-86
2022/11/07 03:28:16;;;;;;;41.00;37.67;;;13.80;99.90;;;;;;4979192;28;20053;-85
2022/11/07 03:30:42;;;;;;;43.40;39.40;;;13.80;99.90;;;;;;4995246;28;20033;-85
2022/11/07 03:33:08;;;;;;;41.08;37.75;;;13.80;99.90;;;;;;5005744;28;20041;-85
2022/11/07 03:35:34;;;;;;;41.40;37.72;;;13.80;99.90;;;;;;4988158;28;20036;-85
2022/11/07 03:38:00;;;;;;;41.97;38.10;;;13.80;99.90;;;;;;5000027;28;20397;-86
2022/11/07 03:40:26;;;;;;;44.72;41.47;;;13.80;99.90;;;;;;4999759;28;20037;-85
2022/11/07 03:42:52;;;;;;;42.10;37.75;;;13.80;99.90;;;;;;5016748;28;20054;-85
2022/11/07 03:45:19;;;;;;;43.95;39.95;;;13.80;99.90;;;;;;5015048;28;20034;-85
2022/11/07 03:47:45;;;;;;;44.35;39.88;;;13.90;99.90;;;;;;5000700;28;20025;-85
2022/11/07 03:50:16;;;;;;;42.63;38.65;;;13.90;99.90;;;;;;4999930;28;20041;-85
2022/11/07 03:52:42;;;;;;;;;;;13.90;99.90;;;;;;5000881;28;20026;-84
2022/11/07 03:55:09;;;;;;;45.33;40.80;;;13.90;99.90;;;;;;5007666;28;19909;-84
2022/11/07 03:57:35;;;;;;;42.55;39.00;;;13.90;99.90;;;;;;5010163;28;20045;-85
2022/11/07 04:00:01;;;;;;;41.53;37.53;;;13.90;99.90;;;;;;4999843;28;20033;-85
2022/11/07 04:02:27;;;;;;;44.10;39.58;;;13.90;99.90;;;;;;5016045;28;20026;-84
2022/11/07 04:04:53;;;;;;;42.15;38.22;;;13.90;99.90;;;;;;5014655;28;20029;-86
2022/11/07 04:07:19;;;;;;;43.28;39.05;;;13.90;99.90;;;;;;5014460;28;20478;-86
2022/11/07 04:09:45;;;;;;;42.55;38.13;;;14.00;99.90;;;;;;4983288;28;20041;-87
2022/11/07 04:17:40;;;;;;;42.83;38.47;;;14.00;99.90;;;;;;5017392;28;20061;-88
2022/11/07 04:20:07;;;;;;;42.55;39.15;;;14.00;99.90;;;;;;5014160;28;20037;-87
2022/11/07 04:22:33;;;;;;;42.13;38.22;;;14.00;99.90;;;;;;4989846;28;20044;-85
2022/11/07 04:25:00;;;;;;;43.80;39.72;;;13.90;99.90;;;;;;5013782;28;20017;-84
2022/11/07 04:27:41;;;;;;;44.35;39.95;;;13.90;99.90;;;;;;5015442;28;20033;-85
2022/11/07 04:30:21;;;;;;;42.65;38.78;;;13.90;99.90;;;;;;5017275;28;20394;-85
2022/11/07 04:32:50;;;;;;;43.13;38.92;;;13.90;99.90;;;;;;5033000;28;20032;-85
2022/11/07 04:35:17;;;;;;;45.30;40.85;;;13.80;99.90;;;;;;4998748;28;20029;-85
2022/11/07 04:37:43;;;;;;;44.75;40.92;;;13.80;99.90;;;;;;5015131;28;20391;-85
2022/11/07 04:40:09;;;;;;;44.17;40.55;;;13.90;99.90;;;;;;5015450;28;20029;-85
2022/11/07 04:42:36;;;;;;;45.63;41.75;;;13.90;99.90;;;;;;5032376;28;20045;-85
2022/11/07 04:45:02;;;;;;;46.17;41.78;;;13.90;99.90;;;;;;4996836;28;20425;-85
2022/11/07 04:47:28;;;;;;;46.85;42.92;;;13.90;99.90;;;;;;4981851;28;20045;-83
2022/11/07 04:49:54;;;;;;;49.50;45.65;;;13.90;99.90;;;;;;5032998;28;20028;-84
2022/11/07 04:52:20;;;;;;;47.97;44.47;;;13.90;99.90;;;;;;5033022;28;20032;-83
2022/11/07 04:54:47;;;;;;;49.15;45.03;;;13.90;99.90;;;;;;5030145;28;20401;-87
2022/11/07 04:57:14;;;;;;;53.60;48.97;;;13.90;99.90;;;;;;4996533;28;20036;-87
2022/11/07 04:59:40;;;;;;;52.38;47.80;;;13.90;99.90;;;;;;5014146;28;20036;-86
2022/11/07 05:02:13;;;;;;;51.33;46.30;;;13.90;99.90;;;;;;4997383;28;20520;-86
2022/11/07 05:04:39;;;;;;;52.30;47.40;;;13.90;99.90;;;;;;4994152;28;20042;-86
2022/11/07 05:07:06;;;;;;;53.35;48.72;;;13.90;99.90;;;;;;4995579;28;20381;-86
2022/11/07 05:09:33;;;;;;;53.20;48.95;;;13.90;99.90;;;;;;4995513;28;20030;-86
2022/11/07 05:11:59;;;;;;;52.13;47.72;;;13.90;99.90;;;;;;4996166;28;20026;-86
2022/11/07 05:14:25;;;;;;;57.05;51.85;;;13.90;99.90;;;;;;5000459;28;20046;-86
2022/11/07 05:16:52;;;;;;;58.35;52.85;;;14.00;99.90;;;;;;5030921;28;20025;-87
2022/11/07 05:19:18;;;;;;;57.38;52.25;;;14.00;99.90;;;;;;5015016;28;20099;-86
2022/11/07 05:21:44;;;;;;;52.45;47.53;;;14.00;99.90;;;;;;5015118;28;20037;-86
2022/11/07 05:24:11;;;;;;;57.03;52.70;;;14.00;99.90;;;;;;4977606;28;20466;-86
2022/11/07 05:26:37;;;;;;;56.30;51.58;;;13.90;99.90;;;;;;4995299;28;20026;-86
2022/11/07 05:29:03;;;;;;;54.35;50.22;;;14.00;99.90;;;;;;4995383;28;20386;-87
2022/11/07 05:31:29;;;;;;;55.45;50.50;;;14.00;99.90;;;;;;4994207;28;20522;-87
2022/11/07 05:33:56;;;;;;;58.35;53.83;;;14.10;99.90;;;;;;4995922;28;20037;-87
2022/11/07 05:36:22;;;;;;;55.85;50.85;;;14.10;99.90;;;;;;5014718;28;20033;-86
2022/11/07 05:38:51;;;;;;;57.13;52.47;;;14.10;99.90;;;;;;5014786;28;20401;-85
2022/11/07 05:41:19;;;;;;;58.05;53.15;;;14.20;99.90;;;;;;4997815;28;20081;-86
2022/11/07 05:43:45;;;;;;;56.50;51.78;;;14.20;99.90;;;;;;5013364;28;20037;-87
2022/11/07 05:46:11;;;;;;;67.18;62.10;;;14.30;99.90;;;;;;4977554;28;20037;-87
2022/11/07 05:48:38;;;;;;;54.50;49.78;;;14.30;99.90;;;;;;4978281;28;20033;-87
2022/11/07 05:51:05;;;;;;;46.75;42.60;;;14.30;99.90;;;;;;4996204;28;20041;-87
2022/11/07 05:53:31;;;;;;;47.00;42.63;;;14.30;99.90;;;;;;4997836;28;20041;-87
2022/11/07 05:55:57;;;;;;;46.88;42.35;;;14.30;99.90;;;;;;4980818;28;20041;-86
2022/11/07 05:58:23;;;;;;;46.55;41.78;;;14.30;99.90;;;;;;5031885;28;20048;-86
2022/11/07 06:00:49;;;;;;;43.58;39.20;;;14.30;99.90;;;;;;5013951;28;20037;-86
2022/11/07 06:03:18;;;;;;;42.85;39.40;;;14.30;99.90;;;;;;4997430;28;20037;-87
2022/11/07 06:05:44;;;;;;;43.10;38.92;;;14.40;99.90;;;;;;5013870;28;20044;-86
2022/11/07 06:08:11;;;;;;;45.22;40.30;;;14.40;99.90;;;;;;5014383;28;20394;-86
2022/11/07 06:10:38;;;;;;;44.15;40.83;;;14.40;99.90;;;;;;5014424;28;20041;-86
2022/11/07 06:13:06;;;;;;;49.45;45.65;;;14.40;99.90;;;;;;5013648;28;20026;-86
2022/11/07 06:15:33;;;;;;;57.00;52.78;;;14.30;99.90;;;;;;5011863;28;20288;-86
2022/11/07 06:18:03;;;;;;;58.63;54.08;;;14.20;99.90;;;;;;4997993;28;20425;-86
2022/11/07 06:20:29;;;;;;;58.00;52.83;;;14.20;99.90;;;;;;4998206;28;20025;-87
2022/11/07 06:23:00;;;;;;;62.85;57.88;;;14.30;99.90;;;;;;5014176;28;20033;-86
2022/11/07 06:25:26;;;;;;;56.65;52.00;;;14.30;99.90;;;;;;4993131;28;20426;-87
2022/11/07 06:27:53;;;;;;;66.43;60.85;;;14.40;99.90;;;;;;5027423;28;20052;-87
2022/11/07 06:30:19;;;;;;;55.65;51.05;;;14.30;99.90;;;;;;4996170;28;20027;-86
2022/11/07 06:32:45;;;;;;;62.75;57.80;;;14.40;99.90;;;;;;4996171;28;20045;-87
2022/11/07 06:35:11;;;;;;;78.13;51.97;;;14.30;99.90;;;;;;5030423;28;20041;-87
2022/11/07 06:37:38;;;;;;;76.32;70.38;;;14.30;99.90;;;;;;5031480;28;20030;-86
2022/11/07 06:40:04;;;;;;;74.90;69.28;;;14.20;99.90;;;;;;4995068;28;20037;-87
2022/11/07 06:42:31;;;;;;;67.00;61.92;;;14.20;99.90;;;;;;5009251;28;20050;-87
2022/11/07 06:44:57;;;;;;;53.40;48.13;;;14.20;99.90;;;;;;5007991;28;20033;-85
2022/11/07 06:47:23;;;;;;;46.33;42.05;;;14.20;99.90;;;;;;5013426;28;20030;-83
2022/11/07 06:49:49;;;;;;;43.03;39.13;;;14.20;99.90;;;;;;5013868;28;20033;-85
2022/11/07 06:52:15;;;;;;;40.15;36.58;;;14.20;99.90;;;;;;5013249;28;20029;-84
2022/11/07 06:54:42;;;;;;;38.08;34.08;;;14.20;99.90;;;;;;5030724;28;20030;-84
2022/11/07 06:57:09;;;;;;;38.15;34.53;;;14.20;99.90;;;;;;5013231;28;20029;-84
2022/11/07 06:59:35;;;;;;;39.45;35.10;;;14.20;99.90;;;;;;5032115;28;20037;-83
2022/11/07 07:02:01;;;;;;;39.00;35.22;;;14.20;99.90;;;;;;5015519;28;20037;-84
2022/11/07 07:04:27;;;;;;;45.28;40.95;;;14.30;99.90;;;;;;5005738;28;20037;-83
2022/11/07 07:06:53;;;;;;;57.42;52.85;;;14.20;99.90;;;;;;4994881;28;20392;-83
2022/11/07 07:09:19;;;;;;;62.95;57.83;;;14.20;99.90;;;;;;5033373;28;20477;-83
2022/11/07 07:11:47;;;;;;;41.33;37.88;;;14.20;99.90;;;;;;5013055;28;20029;-83
2022/11/07 07:14:13;;;;;;;36.65;32.28;;;14.20;99.90;;;;;;5003714;28;20037;-83
2022/11/07 07:16:39;;;;;;;37.63;34.53;;;14.20;99.90;;;;;;5010552;28;20034;-84
2022/11/07 07:19:05;;;;;;;47.85;44.35;;;14.20;99.90;;;;;;5002617;28;20394;-85
2022/11/07 07:21:32;;;;;;;48.45;44.45;;;14.10;99.90;;;;;;5016193;28;20037;-85
2022/11/07 07:23:58;;;;;;;48.55;45.25;;;14.10;99.90;;;;;;4983802;28;20041;-84
2022/11/07 07:26:25;;;;;;;51.42;47.83;;;14.10;99.90;;;;;;5033545;28;20030;-85
2022/11/07 07:28:51;;;;;;;56.90;53.15;;;14.20;99.90;;;;;;5000986;28;20041;-86
2022/11/07 07:31:30;;;;;;;59.35;55.53;;;14.20;99.90;;;;;;4993207;28;20034;-89
2022/11/07 07:33:56;;;;;;;59.70;55.72;;;14.20;99.90;;;;;;5014832;28;20029;-88
2022/11/07 07:36:22;;;;;;;49.08;45.22;;;14.20;99.90;;;;;;5035001;28;20032;-89
2022/11/07 07:38:49;;;;;;;44.92;40.40;;;14.20;99.90;;;;;;4997510;28;20057;-90
2022/11/07 07:41:15;;;;;;;40.03;36.30;;;14.30;99.90;;;;;;5039405;28;20036;-90
2022/11/07 07:43:41;;;;;;;38.85;35.20;;;14.30;99.90;;;;;;4998111;28;20034;-93
2022/11/07 07:46:08;;;;;;;40.30;36.45;;;14.30;99.90;;;;;;5019515;28;20030;-93
2022/11/07 07:48:34;;;;;;;36.75;33.60;;;14.30;99.90;;;;;;5014401;28;20013;-91
2022/11/07 07:51:00;;;;;;;38.85;35.28;;;14.40;99.90;;;;;;5012919;28;20021;-90
2022/11/07 07:53:26;;;;;;;37.00;33.25;;;14.40;99.90;;;;;;5017898;28;20044;-89
2022/11/07 07:55:59;;;;;;;39.78;35.63;;;14.40;99.90;;;;;;5017769;28;20040;-88
2022/11/07 07:58:25;;;;;;;42.55;38.35;;;14.50;99.90;;;;;;5034500;28;20045;-86
2022/11/07 08:00:57;;;;;;;43.35;39.20;;;14.50;99.90;;;;;;5016370;28;20037;-88
2022/11/07 08:03:23;;;;;;;47.75;43.40;;;14.60;99.90;;;;;;5000982;28;20038;-91
2022/11/07 08:05:57;;;;;;;49.42;44.88;;;14.50;99.90;;;;;;5015979;28;20033;-87
2022/11/07 08:08:23;;;;;;;55.00;50.05;;;14.50;99.90;;;;;;5016201;28;20025;-90
2022/11/07 08:10:53;;;;;;;58.97;53.95;;;14.50;99.90;;;;;;4998809;28;20033;-87
2022/11/07 08:13:20;;;;;;;58.33;53.53;;;14.60;99.90;;;;;;5015382;28;20517;-87
2022/11/07 08:15:47;;;;;;;62.88;57.75;;;14.70;99.90;;;;;;4996161;28;20383;-88
2022/11/07 08:18:13;;;;;;;59.53;54.95;;;14.70;99.90;;;;;;5016323;28;20045;-87
2022/11/07 08:20:39;;;;;;;43.28;39.83;;;14.80;99.90;;;;;;4999919;28;20052;-87
2022/11/07 08:23:07;;;;;;;34.33;30.88;;;14.80;99.90;;;;;;5016665;28;20025;-88
2022/11/07 08:25:33;;;;;;;31.55;28.67;;;14.90;99.90;;;;;;5015363;28;20040;-88
2022/11/07 08:27:59;;;;;;;41.50;37.63;;;15.00;99.90;;;;;;4999190;28;20037;-90
2022/11/07 08:30:30;;;;;;;37.70;34.78;;;15.00;99.90;;;;;;4983897;28;20036;-90
2022/11/07 08:33:00;;;;;;;39.67;36.17;;;15.00;99.90;;;;;;4998350;28;20022;-88
2022/11/07 08:35:26;;;;;;;44.63;40.47;;;15.10;99.90;;;;;;4998407;28;20032;-88
2022/11/07 08:37:52;;;;;;;43.88;40.25;;;15.10;99.90;;;;;;5014143;28;20041;-88
2022/11/07 08:40:19;;;;;;;44.20;40.47;;;15.20;99.90;;;;;;5015402;28;20052;-89
2022/11/07 08:42:45;;;;;;;31.02;28.08;;;15.20;99.90;;;;;;5015850;28;20482;-88
2022/11/07 08:45:11;;;;;;;32.97;29.60;;;15.20;99.90;;;;;;5001755;28;20037;-89
2022/11/07 08:47:37;;;;;;;38.20;34.53;;;15.20;99.90;;;;;;4999128;28;20394;-91
2022/11/07 08:50:04;;;;;;;31.92;28.95;;;15.30;99.90;;;;;;5000249;28;20060;-89
2022/11/07 08:52:30;;;;;;;39.13;35.40;;;15.40;99.90;;;;;;4998752;28;20045;-88
2022/11/07 08:54:56;;;;;;;40.42;36.75;;;15.40;99.90;;;;;;4980707;28;20048;-89
2022/11/07 08:57:22;;;;;;;40.22;36.85;;;15.50;99.90;;;;;;4990986;28;20050;-86
2022/11/07 08:59:48;;;;;;;35.53;28.27;;;15.60;99.90;;;;;;5032508;28;20045;-87
2022/11/07 09:02:14;;;;;;;34.35;31.15;;;15.60;99.90;;;;;;5015462;28;20044;-90
2022/11/07 09:04:40;;;;;;;32.85;29.60;;;15.70;99.90;;;;;;5033492;28;20486;-88
2022/11/07 09:07:07;;;;;;;35.78;32.08;;;15.70;99.90;;;;;;4983590;28;20052;-87
2022/11/07 09:09:33;;;;;;;34.80;31.58;;;15.70;99.90;;;;;;5014473;28;20397;-90
2022/11/07 09:11:59;;;;;;;34.90;31.90;;;15.70;99.90;;;;;;4984123;28;20064;-91
2022/11/07 09:14:26;;;;;;;35.30;32.10;;;15.70;99.90;;;;;;5000125;28;20044;-90
2022/11/07 09:16:52;;;;;;;37.85;33.97;;;15.70;99.90;;;;;;5014331;28;20402;-92
2022/11/07 09:19:18;;;;;;;36.13;32.70;;;15.70;99.90;;;;;;5009588;28;20056;-89
2022/11/07 09:21:44;;;;;;;35.90;32.53;;;15.80;99.90;;;;;;5001060;28;20097;-92
2022/11/07 09:24:10;;;;;;;40.40;37.00;;;15.80;99.90;;;;;;5013572;28;20034;-90
2022/11/07 09:26:36;;;;;;;40.08;36.03;;;15.80;99.90;;;;;;5034545;28;20373;-91
2022/11/07 09:29:03;;;;;;;40.17;36.72;;;15.90;99.90;;;;;;5017962;28;20041;-92
2022/11/07 09:31:29;;;;;;;37.88;35.08;;;15.90;99.90;;;;;;5016718;28;20301;-92
2022/11/07 09:33:55;;;;;;;36.40;33.28;;;16.00;99.90;;;;;;5017004;28;20034;-92
2022/11/07 09:36:22;;;;;;;36.25;32.90;;;16.00;99.90;;;;;;5033900;28;20029;-91
2022/11/07 09:38:49;;;;;;;34.58;31.20;;;16.10;99.90;;;;;;4996653;28;20046;-92
2022/11/07 09:41:23;;;;;;;34.38;31.15;;;16.20;99.90;;;;;;4998801;28;20044;-91
2022/11/07 09:43:49;;;;;;;36.38;32.95;;;16.20;99.90;;;;;;4996150;28;20048;-87
2022/11/07 09:46:34;;;;;;;32.97;29.63;;;16.30;99.90;;;;;;5013312;28;20105;-87
2022/11/07 09:49:07;;;;;;;35.20;31.92;;;16.40;99.90;;;;;;4985128;28;20390;-87
2022/11/07 09:51:35;;;;;;;30.02;27.10;;;16.50;99.90;;;;;;4996374;28;20462;-88
2022/11/07 09:54:19;;;;;;;34.13;30.98;;;16.60;99.90;;;;;;5013684;28;20029;-87
2022/11/07 09:56:45;;;;;;;31.52;27.58;;;16.60;99.90;;;;;;4984280;28;20033;-92
2022/11/07 09:59:27;;;;;;;31.13;27.77;;;16.60;99.90;;;;;;4983335;28;20073;-86
2022/11/07 10:01:53;;;;;;;36.08;26.92;;;16.70;99.90;;;;;;4997987;28;20044;-87
2022/11/07 10:04:20;;;;;;;30.65;27.98;;;16.80;99.90;;;;;;4999252;28;20037;-90
2022/11/07 10:07:02;;;;;;;31.20;28.17;;;16.80;99.90;;;;;;4984978;28;20049;-92
2022/11/07 10:10:00;;;;;;;30.60;27.50;;;16.90;99.90;;;;;;5015758;28;20025;-87
2022/11/07 10:12:56;;;;;;;33.08;29.08;;;16.90;99.90;;;;;;4995488;28;20068;-87
2022/11/07 10:15:25;;;;;;;36.78;33.47;;;17.00;99.90;;;;;;5014657;28;20042;-91
2022/11/07 10:18:32;;;;;;;43.45;39.58;;;17.00;99.90;;;;;;5038312;28;20483;-90
2022/11/07 10:21:13;;;;;;;54.75;51.05;;;17.10;99.90;;;;;;4938889;28;20039;-88
2022/11/07 10:23:45;;;;;;;;;;;17.10;99.90;;;;;;4943777;29;20047;-93
2022/11/07 10:26:11;;;;;;;51.00;46.90;;;17.10;99.90;;;;;;4951501;29;19926;-90
2022/11/07 10:28:51;;;;;;;56.83;52.55;;;17.20;99.90;;;;;;4936621;29;20043;-90
2022/11/07 10:31:17;;;;;;;54.55;50.45;;;17.20;99.90;;;;;;4936222;28;20039;-92
2022/11/07 10:33:55;;;;;;;58.88;54.67;;;17.30;99.90;;;;;;4917818;28;20039;-87
2022/11/07 10:36:26;;;;;;;65.13;59.58;;;17.30;99.90;;;;;;4936418;29;20046;-89
2022/11/07 10:38:52;;;;;;;55.15;50.70;;;17.40;99.90;;;;;;4934629;29;20404;-90
2022/11/07 10:41:21;;;;;;;61.78;57.35;;;17.40;99.90;;;;;;4920696;29;20031;-91
2022/11/07 10:44:12;;;;;;;62.65;58.13;;;17.40;99.90;;;;;;4927884;29;20488;-86
2022/11/07 10:46:39;;;;;;;58.75;54.22;;;17.40;99.90;;;;;;4950652;29;20108;-84
2022/11/07 10:49:23;;;;;;;42.17;38.55;;;17.50;99.90;;;;;;4931234;29;20040;-84
2022/11/07 10:51:49;;;;;;;46.60;42.53;;;17.50;99.90;;;;;;4942770;29;20042;-84
2022/11/07 10:54:24;;;;;;;57.72;53.20;;;17.40;99.90;;;;;;4930737;28;20048;-85
2022/11/07 10:57:01;;;;;;;48.55;45.00;;;17.40;99.90;;;;;;5034369;28;20029;-85
2022/11/07 10:59:28;;;;;;;54.25;50.28;;;17.30;99.90;;;;;;4997813;28;20049;-85
2022/11/07 11:01:56;;;;;;;62.28;58.17;;;17.20;99.90;;;;;;5015572;28;20029;-84
2022/11/07 11:04:23;;;;;;;57.97;53.65;;;17.20;99.90;;;;;;5008588;28;20037;-86
2022/11/07 11:07:00;;;;;;;59.42;55.40;;;17.20;99.90;;;;;;5015320;28;20021;-87
2022/11/07 11:09:30;;;;;;;64.15;59.72;;;17.10;99.90;;;;;;5015532;28;20037;-86
2022/11/07 11:11:56;;;;;;;62.30;58.22;;;17.10;99.90;;;;;;5032514;28;20144;-89
2022/11/07 11:14:22;;;;;;;57.05;52.67;;;17.10;99.90;;;;;;4999148;28;20038;-91
2022/11/07 11:16:52;;;;;;;60.10;56.17;;;17.10;99.90;;;;;;4987141;28;20046;-87
2022/11/07 11:19:40;;;;;;;56.10;51.83;;;17.00;99.90;;;;;;4996578;28;20056;-88
2022/11/07 11:22:17;;;;;;;54.15;50.05;;;17.00;99.90;;;;;;5017782;28;20030;-91
2022/11/07 11:24:43;;;;;;;51.20;47.33;;;17.00;99.90;;;;;;4990239;28;20048;-88
2022/11/07 11:27:17;;;;;;;58.53;54.40;;;17.00;99.90;;;;;;5001767;28;20030;-90
2022/11/07 11:29:49;;;;;;;53.80;49.80;;;17.00;99.90;;;;;;4995518;28;20509;-91
2022/11/07 11:32:36;;;;;;;29.20;26.55;;;17.10;99.90;;;;;;4996830;28;20040;-90
2022/11/07 11:35:05;;;;;;;28.67;26.17;;;17.30;99.90;;;;;;4996717;28;20046;-89
2022/11/07 11:37:32;;;;;;;28.38;25.75;;;17.40;99.90;;;;;;5002271;28;20289;-90
2022/11/07 11:40:13;;;;;;;33.00;30.13;;;17.60;99.90;;;;;;4990006;28;20049;-88
2022/11/07 11:43:01;;;;;;;34.20;31.30;;;17.60;99.90;;;;;;5016349;28;20064;-86
2022/11/07 11:45:39;;;;;;;31.33;28.58;;;17.60;99.10;;;;;;4980403;28;20057;-90
2022/11/07 11:48:25;;;;;;;30.15;28.25;;;17.50;99.50;;;;;;5033835;28;20029;-92
2022/11/07 11:51:14;;;;;;;29.05;25.92;;;17.40;98.70;;;;;;4996833;28;20049;-91
2022/11/07 11:53:40;;;;;;;30.23;27.90;;;17.40;99.80;;;;;;4996481;28;20034;-86
2022/11/07 11:56:06;;;;;;;32.13;29.15;;;17.40;99.00;;;;;;4972515;28;20045;-89
2022/11/07 11:58:36;;;;;;;30.45;27.55;;;17.30;99.70;;;;;;5013748;28;20046;-87
2022/11/07 12:01:20;;;;;;;30.35;27.73;;;17.40;99.90;;;;;;5016178;28;20032;-91
2022/11/07 12:04:25;;;;;;;34.00;30.63;;;17.40;99.90;;;;;;5011217;28;20029;-88
2022/11/07 12:06:53;;;;;;;32.28;29.15;;;17.40;99.90;;;;;;4954403;29;20043;-87
2022/11/07 12:09:43;;;;;;;33.45;30.90;;;17.50;99.90;;;;;;4952197;28;20451;-88
2022/11/07 12:12:21;;;;;;;34.08;31.15;;;17.60;99.70;;;;;;4953084;28;20027;-88
2022/11/07 12:15:18;;;;;;;34.90;31.90;;;17.70;99.50;;;;;;4936865;29;20054;-87
2022/11/07 12:17:48;;;;;;;31.88;29.13;;;17.60;99.10;;;;;;4937123;28;20042;-87
2022/11/07 12:20:17;;;;;;;31.70;29.33;;;17.60;99.90;;;;;;4936127;29;20039;-91
2022/11/07 12:23:10;;;;;;;33.25;30.42;;;17.60;99.90;;;;;;4951839;28;20390;-91
2022/11/07 12:25:45;;;;;;;32.20;29.45;;;17.60;99.90;;;;;;4946416;28;20035;-89
2022/11/07 12:28:23;;;;;;;34.17;31.10;;;17.60;99.90;;;;;;4924055;29;20404;-88
2022/11/07 12:30:58;;;;;;;35.95;33.40;;;17.60;99.50;;;;;;4952826;28;20388;-88
2022/11/07 12:33:44;;;;;;;35.65;32.78;;;17.60;98.80;;;;;;4951510;29;20062;-91
2022/11/07 12:36:21;;;;;;;35.55;32.38;;;17.50;99.00;;;;;;4928782;29;20048;-86
2022/11/07 12:39:14;;;;;;;33.65;30.92;;;17.50;98.60;;;;;;4949916;28;20151;-85
2022/11/07 12:41:46;;;;;;;31.60;29.02;;;17.50;98.90;;;;;;4953775;28;20062;-90
2022/11/07 12:44:33;;;;;;;31.75;29.05;;;17.50;98.40;;;;;;4980090;28;20037;-89
2022/11/07 12:47:01;;;;;;;32.25;29.63;;;17.50;98.00;;;;;;5005391;28;20101;-94